createdAt,value
2023-04-28T00:00:58.023Z,47.1174
2023-04-28T00:02:02.304Z,46.4596
2023-04-28T00:03:06.662Z,50.3085
2023-04-28T00:04:11.097Z,53.7746
2023-04-28T00:05:15.604Z,55.3220
2023-04-28T00:06:19.928Z,54.2688
2023-04-28T00:07:24.189Z,51.4408
2023-04-28T00:08:28.443Z,49.8357
2023-04-28T00:09:32.720Z,52.5758
2023-04-28T00:10:37.010Z,53.8840
2023-04-28T00:11:41.289Z,53.2069
2023-04-28T00:12:45.580Z,52.4850
2023-04-28T00:13:49.838Z,50.3901
2023-04-28T00:14:51.238Z,48.7138
2023-04-28T00:15:55.533Z,51.5171
2023-04-28T00:16:59.843Z,53.7738
2023-04-28T00:18:04.147Z,53.3826
2023-04-28T00:19:08.430Z,52.5726
2023-04-28T00:20:12.686Z,50.8773
2023-04-28T00:21:16.989Z,47.1682
2023-04-28T00:22:21.257Z,47.8978
2023-04-28T00:23:25.555Z,51.7377
2023-04-28T00:24:29.817Z,54.7555
2023-04-28T00:25:34.140Z,55.0695
2023-04-28T00:26:38.438Z,53.6586
2023-04-28T00:27:42.705Z,50.1567
2023-04-28T00:28:46.984Z,48.9291
2023-04-28T00:29:51.546Z,52.1414
2023-04-28T00:30:55.845Z,54.3746
2023-04-28T00:32:00.208Z,53.8840
2023-04-28T00:33:04.687Z,52.8659
2023-04-28T00:34:08.951Z,50.3815
2023-04-28T00:35:13.234Z,47.5772
2023-04-28T00:36:17.528Z,50.1494
2023-04-28T00:37:21.802Z,53.5402
2023-04-28T00:38:26.097Z,54.6764
2023-04-28T00:39:30.349Z,53.6388
2023-04-28T00:40:34.668Z,51.9015
2023-04-28T00:41:38.906Z,47.8685
2023-04-28T00:42:43.193Z,47.0975
2023-04-28T00:43:47.450Z,50.7604
2023-04-28T00:44:51.752Z,54.1578
2023-04-28T00:45:56.042Z,55.5793
2023-04-28T00:47:00.286Z,54.4570
2023-04-28T00:48:04.642Z,51.3611
2023-04-28T00:49:08.946Z,48.7843
2023-04-28T00:50:13.236Z,51.4219
2023-04-28T00:51:17.517Z,54.2041
2023-04-28T00:52:22.751Z,54.2219
2023-04-28T00:53:27.043Z,53.1685
2023-04-28T00:54:31.308Z,51.2601
2023-04-28T00:55:35.618Z,47.7708
2023-04-28T00:56:39.907Z,49.3427
2023-04-28T00:57:44.185Z,52.9285
2023-04-28T00:58:48.475Z,54.8084
2023-04-28T00:59:52.733Z,54.0122
2023-04-28T01:00:57.039Z,52.6159
2023-04-28T01:02:01.325Z,49.1954
2023-04-28T01:03:05.991Z,49.3141
2023-04-28T01:04:10.440Z,52.7000
2023-04-28T01:05:15.074Z,54.3400
2023-04-28T01:06:19.317Z,53.5824
2023-04-28T01:07:23.591Z,52.5547
2023-04-28T01:08:27.890Z,49.5992
2023-04-28T01:09:32.145Z,47.6186
2023-04-28T01:10:36.438Z,50.7128
2023-04-28T01:11:40.702Z,53.9710
2023-04-28T01:12:45.011Z,54.7016
2023-04-28T01:13:49.296Z,53.6139
2023-04-28T01:14:53.839Z,51.4753
2023-04-28T01:15:58.100Z,47.7901
2023-04-28T01:17:02.458Z,49.1315
2023-04-28T01:18:07.096Z,52.7945
2023-04-28T01:19:11.344Z,54.9328
2023-04-28T01:20:15.644Z,54.2488
2023-04-28T01:21:19.925Z,52.7841
2023-04-28T01:22:24.209Z,49.2688
2023-04-28T01:23:28.523Z,48.9161
2023-04-28T01:24:32.805Z,52.2526
2023-04-28T01:25:37.068Z,54.3898
2023-04-28T01:26:41.368Z,53.7771
2023-04-28T01:27:45.656Z,52.7030
2023-04-28T01:28:49.936Z,49.9218
2023-04-28T01:29:54.228Z,47.9032
2023-04-28T01:30:58.511Z,50.9360
2023-04-28T01:32:02.873Z,53.9553
2023-04-28T01:33:07.207Z,54.2951
2023-04-28T01:34:11.571Z,53.2875
2023-04-28T01:35:15.835Z,51.3756
2023-04-28T01:36:20.126Z,48.1920
2023-04-28T01:37:24.403Z,50.2282
2023-04-28T01:38:28.692Z,53.6601
2023-04-28T01:39:32.978Z,54.8361
2023-04-28T01:40:37.649Z,53.9837
2023-04-28T01:41:41.927Z,52.5801
2023-04-28T01:42:46.199Z,48.9878
2023-04-28T01:43:50.483Z,49.3905
2023-04-28T01:44:54.779Z,52.9635
2023-04-28T01:45:59.086Z,55.4054
2023-04-28T01:47:03.374Z,55.0837
2023-04-28T01:48:07.771Z,53.8891
2023-04-28T01:49:12.098Z,50.5219
2023-04-28T01:50:16.378Z,48.3744
2023-04-28T01:51:20.653Z,51.4823
2023-04-28T01:52:24.923Z,55.0185
2023-04-28T01:53:29.188Z,56.7379
2023-04-28T01:54:33.498Z,55.8909
2023-04-28T01:55:37.800Z,53.4609
2023-04-28T01:56:42.077Z,49.7424
2023-04-28T01:57:46.626Z,51.6000
2023-04-28T01:58:50.916Z,55.1226
2023-04-28T01:59:55.187Z,57.0901
2023-04-28T02:00:59.465Z,56.3950
2023-04-28T02:02:03.768Z,54.6289
2023-04-28T02:03:08.212Z,50.4140
2023-04-28T02:04:12.611Z,50.4581
2023-04-28T02:05:24.742Z,54.1463
2023-04-28T02:06:29.028Z,57.3704
2023-04-28T02:07:33.400Z,57.4588
2023-04-28T02:08:37.727Z,55.8838
2023-04-28T02:09:42.015Z,51.8070
2023-04-28T02:10:46.309Z,51.2269
2023-04-28T02:11:50.591Z,54.6815
2023-04-28T02:12:54.880Z,57.3395
2023-04-28T02:13:59.144Z,57.3484
2023-04-28T02:15:03.428Z,56.0474
2023-04-28T02:16:07.825Z,52.4582
2023-04-28T02:17:12.082Z,49.3802
2023-04-28T02:18:16.374Z,52.0101
2023-04-28T02:19:20.625Z,55.8113
2023-04-28T02:20:24.914Z,58.3529
2023-04-28T02:21:29.286Z,58.3365
2023-04-28T02:22:33.567Z,55.6844
2023-04-28T02:23:37.845Z,51.8976
2023-04-28T02:24:42.142Z,53.7964
2023-04-28T02:25:46.402Z,56.7919
2023-04-28T02:26:50.712Z,57.4921
2023-04-28T02:27:55.254Z,56.4398
2023-04-28T02:28:59.534Z,54.5723
2023-04-28T02:30:03.796Z,50.0984
2023-04-28T02:31:08.169Z,49.8037
2023-04-28T02:32:12.402Z,53.5203
2023-04-28T02:33:16.659Z,56.9084
2023-04-28T02:34:20.950Z,58.6838
2023-04-28T02:35:25.222Z,57.6730
2023-04-28T02:36:29.538Z,53.4971
2023-04-28T02:37:33.811Z,50.0370
2023-04-28T02:38:38.096Z,52.5459
2023-04-28T02:39:42.575Z,56.0897
2023-04-28T02:40:46.843Z,58.3276
2023-04-28T02:41:51.132Z,57.7841
2023-04-28T02:42:51.583Z,55.1650
2023-04-28T02:43:55.867Z,50.6523
2023-04-28T02:45:00.182Z,51.1876
2023-04-28T02:46:04.440Z,54.8815
2023-04-28T02:47:08.757Z,57.7290
2023-04-28T02:48:13.033Z,58.1389
2023-04-28T02:49:17.297Z,56.5158
2023-04-28T02:50:21.557Z,52.1971
2023-04-28T02:51:25.857Z,50.7155
2023-04-28T02:52:30.137Z,54.0813
2023-04-28T02:53:34.528Z,57.3797
2023-04-28T02:54:38.801Z,58.5233
2023-04-28T02:55:43.366Z,57.3184
2023-04-28T02:56:47.613Z,53.8419
2023-04-28T02:57:52.006Z,50.3351
2023-04-28T02:58:56.237Z,52.8049
2023-04-28T03:00:01.586Z,56.5119
2023-04-28T03:01:05.850Z,58.9976
2023-04-28T03:02:10.118Z,58.8118
2023-04-28T03:03:14.732Z,56.2897
2023-04-28T03:04:19.396Z,51.6070
2023-04-28T03:05:23.969Z,52.5874
2023-04-28T03:06:28.277Z,56.1879
2023-04-28T03:07:32.558Z,59.0050
2023-04-28T03:08:36.854Z,59.2571
2023-04-28T03:09:42.322Z,57.4239
2023-04-28T03:10:41.347Z,52.7892
2023-04-28T03:11:45.624Z,52.3134
2023-04-28T03:12:49.916Z,55.7997
2023-04-28T03:13:54.192Z,58.7311
2023-04-28T03:14:58.477Z,59.2215
2023-04-28T03:16:02.764Z,57.8167
2023-04-28T03:17:07.155Z,53.7631
2023-04-28T03:18:11.427Z,50.5219
2023-04-28T03:19:15.771Z,53.2860
2023-04-28T03:20:16.333Z,56.9658
2023-04-28T03:21:20.643Z,59.6931
2023-04-28T03:22:24.936Z,60.2800
2023-04-28T03:23:29.319Z,57.7092
2023-04-28T03:24:33.633Z,52.7545
2023-04-28T03:25:37.904Z,53.8890
2023-04-28T03:26:42.215Z,57.4685
2023-04-28T03:27:46.503Z,59.8793
2023-04-28T03:28:50.803Z,59.8099
2023-04-28T03:29:55.093Z,57.8082
2023-04-28T03:30:59.460Z,52.7012
2023-04-28T03:32:03.782Z,51.3922
2023-04-28T03:33:08.187Z,54.9348
2023-04-28T03:34:12.479Z,58.5776
2023-04-28T03:35:16.791Z,60.8946
2023-04-28T03:36:21.102Z,60.9214
2023-04-28T03:37:25.430Z,56.4627
2023-04-28T03:38:29.747Z,52.1198
2023-04-28T03:39:34.046Z,54.3601
2023-04-28T03:40:38.421Z,57.9571
2023-04-28T03:41:42.722Z,60.5746
2023-04-28T03:42:47.029Z,61.2297
2023-04-28T03:43:51.338Z,58.4431
2023-04-28T03:44:54.811Z,52.8127
2023-04-28T03:45:58.486Z,52.3961
2023-04-28T03:46:59.675Z,55.9355
2023-04-28T03:48:04.072Z,59.1391
2023-04-28T03:49:08.355Z,61.3605
2023-04-28T03:50:12.688Z,61.4057
2023-04-28T03:51:16.986Z,56.6494
2023-04-28T03:52:21.290Z,55.3034
2023-04-28T03:53:25.832Z,58.2854
2023-04-28T03:54:30.132Z,60.3134
2023-04-28T03:55:33.977Z,59.8802
2023-04-28T03:56:38.281Z,58.5052
2023-04-28T03:57:42.628Z,54.1129
2023-04-28T03:58:46.893Z,50.2034
2023-04-28T03:59:51.245Z,52.2555
2023-04-28T04:00:55.582Z,56.4766
2023-04-28T04:01:59.898Z,59.7759
2023-04-28T04:03:04.539Z,61.9598
2023-04-28T04:04:09.179Z,61.1636
2023-04-28T04:05:14.016Z,55.2185
2023-04-28T04:06:18.355Z,55.2471
2023-04-28T04:07:22.665Z,58.5417
2023-04-28T04:08:27.079Z,61.0264
2023-04-28T04:09:31.358Z,61.6866
2023-04-28T04:10:35.663Z,59.9180
2023-04-28T04:11:39.957Z,54.2473
2023-04-28T04:12:44.302Z,52.7601
2023-04-28T04:13:48.581Z,56.2384
2023-04-28T04:14:52.900Z,59.6124
2023-04-28T04:15:57.358Z,61.6906
2023-04-28T04:17:01.653Z,61.4741
2023-04-28T04:18:06.007Z,56.7791
2023-04-28T04:19:10.389Z,51.6947
2023-04-28T04:20:14.703Z,53.2722
2023-04-28T04:21:18.972Z,57.2225
2023-04-28T04:22:23.298Z,60.3976
2023-04-28T04:23:27.584Z,62.4104
2023-04-28T04:24:31.903Z,61.4651
2023-04-28T04:25:36.177Z,54.9235
2023-04-28T04:26:40.499Z,52.4952
2023-04-28T04:27:44.806Z,55.8239
2023-04-28T04:28:49.134Z,59.3483
2023-04-28T04:29:53.404Z,61.9129
2023-04-28T04:30:57.856Z,62.9224
2023-04-28T04:32:02.135Z,58.4062
2023-04-28T04:33:06.746Z,52.9194
2023-04-28T04:34:11.078Z,54.4118
2023-04-28T04:35:15.645Z,58.1951
2023-04-28T04:36:19.924Z,61.1293
2023-04-28T04:37:24.225Z,62.9979
2023-04-28T04:38:28.768Z,61.3447
2023-04-28T04:39:33.084Z,54.6318
2023-04-28T04:40:37.393Z,53.0017
2023-04-28T04:41:41.710Z,56.4771
2023-04-28T04:42:46.001Z,59.9546
2023-04-28T04:43:50.326Z,62.4165
2023-04-28T04:44:54.632Z,63.2266
2023-04-28T04:45:58.928Z,58.1193
2023-04-28T04:47:03.252Z,54.9897
2023-04-28T04:48:07.595Z,57.8046
2023-04-28T04:49:11.942Z,60.7549
2023-04-28T04:50:16.233Z,62.4184
2023-04-28T04:51:20.524Z,62.1474
2023-04-28T04:52:24.827Z,57.7082
2023-04-28T04:53:29.159Z,52.1177
2023-04-28T04:54:33.455Z,52.9073
2023-04-28T04:55:37.743Z,56.9277
2023-04-28T04:56:42.047Z,60.3189
2023-04-28T04:57:46.347Z,62.6764
2023-04-28T04:58:50.664Z,62.8073
2023-04-28T04:59:54.952Z,57.4982
2023-04-28T05:00:59.280Z,57.5785
2023-04-28T05:02:03.647Z,60.2898
2023-04-28T05:03:08.051Z,61.9250
2023-04-28T05:04:12.566Z,61.8010
2023-04-28T05:05:21.191Z,59.7274
2023-04-28T05:06:20.558Z,53.7157
2023-04-28T05:07:24.856Z,50.9332
2023-04-28T05:08:29.178Z,53.8831
2023-04-28T05:09:33.502Z,58.0076
2023-04-28T05:10:37.838Z,61.0555
2023-04-28T05:11:42.129Z,63.1030
2023-04-28T05:12:49.024Z,60.9286
2023-04-28T05:13:48.279Z,54.9264
2023-04-28T05:14:52.571Z,55.8776
2023-04-28T05:15:56.906Z,59.1991
2023-04-28T05:17:01.238Z,61.6906
2023-04-28T05:18:05.619Z,62.7538
2023-04-28T05:19:09.934Z,60.8504
2023-04-28T05:20:14.249Z,54.3962
2023-04-28T05:21:18.562Z,52.4717
2023-04-28T05:22:22.852Z,55.8675
2023-04-28T05:23:27.161Z,59.4622
2023-04-28T05:24:31.450Z,61.9436
2023-04-28T05:25:35.761Z,63.0102
2023-04-28T05:26:40.050Z,58.4628
2023-04-28T05:27:44.362Z,53.0259
2023-04-28T05:28:48.680Z,54.6499
2023-04-28T05:29:52.971Z,58.3412
2023-04-28T05:30:57.279Z,61.2288
2023-04-28T05:32:01.633Z,62.9309
2023-04-28T05:33:06.008Z,61.1362
2023-04-28T05:34:10.327Z,54.6265
2023-04-28T05:35:14.681Z,53.9176
2023-04-28T05:36:18.942Z,57.4802
2023-04-28T05:37:23.259Z,60.6092
2023-04-28T05:38:27.778Z,62.6439
2023-04-28T05:39:32.112Z,62.2643
2023-04-28T05:40:36.422Z,56.6218
2023-04-28T05:41:40.737Z,54.7688
2023-04-28T05:42:45.018Z,57.9828
2023-04-28T05:43:49.327Z,60.9825
2023-04-28T05:44:53.614Z,62.5298
2023-04-28T05:45:57.981Z,61.7616
2023-04-28T05:47:02.291Z,56.7392
2023-04-28T05:48:06.604Z,52.1205
2023-04-28T05:49:10.876Z,54.1144
2023-04-28T05:50:15.179Z,58.1083
2023-04-28T05:51:19.506Z,61.2366
2023-04-28T05:52:23.810Z,63.2610
2023-04-28T05:53:28.101Z,61.9381
2023-04-28T05:54:32.414Z,55.7877
2023-04-28T05:55:36.736Z,56.2734
2023-04-28T05:56:41.060Z,59.8117
2023-04-28T05:57:52.406Z,62.4481
2023-04-28T05:58:50.222Z,64.0868
2023-04-28T05:59:54.530Z,62.9293
2023-04-28T06:00:58.821Z,57.1374
2023-04-28T06:02:03.174Z,53.3793
2023-04-28T06:03:07.582Z,56.4523
2023-04-28T06:04:12.176Z,60.9807
2023-04-28T06:05:16.717Z,64.1505
2023-04-28T06:06:21.275Z,66.0416
2023-04-28T06:07:25.557Z,64.5920
2023-04-28T06:08:29.869Z,57.5909
2023-04-28T06:09:34.173Z,55.5981
2023-04-28T06:10:38.472Z,59.2026
2023-04-28T06:11:42.768Z,62.5844
2023-04-28T06:12:47.111Z,65.3773
2023-04-28T06:13:51.420Z,67.1843
2023-04-28T06:14:55.711Z,63.1209
2023-04-28T06:16:00.105Z,57.0325
2023-04-28T06:17:04.451Z,57.5535
2023-04-28T06:18:08.818Z,61.3898
2023-04-28T06:19:13.108Z,63.9618
2023-04-28T06:20:17.458Z,64.5304
2023-04-28T06:21:21.896Z,66.3091
2023-04-28T06:22:26.250Z,58.7051
2023-04-28T06:23:30.558Z,49.1315
2023-04-28T06:24:34.860Z,44.5090
2023-04-28T06:25:39.238Z,47.5519
2023-04-28T06:26:43.520Z,52.8125
2023-04-28T06:27:47.849Z,58.1177
2023-04-28T06:28:52.221Z,62.8882
2023-04-28T06:29:56.538Z,61.7013
2023-04-28T06:31:01.248Z,59.4537
2023-04-28T06:32:05.531Z,62.3516
2023-04-28T06:33:09.915Z,66.1452
2023-04-28T06:34:14.405Z,69.7800
2023-04-28T06:35:18.872Z,71.2447
2023-04-28T06:36:23.162Z,62.4084
2023-04-28T06:37:27.488Z,54.1292
2023-04-28T06:38:31.853Z,55.4576
2023-04-28T06:39:36.160Z,59.7815
2023-04-28T06:40:40.476Z,64.1256
2023-04-28T06:41:44.787Z,67.9801
2023-04-28T06:42:49.069Z,64.7372
2023-04-28T06:43:53.413Z,57.6827
2023-04-28T06:44:57.737Z,58.7798
2023-04-28T06:46:02.158Z,62.5985
2023-04-28T06:47:06.474Z,66.4577
2023-04-28T06:48:10.976Z,69.7085
2023-04-28T06:49:15.284Z,65.4421
2023-04-28T06:50:19.625Z,56.3137
2023-04-28T06:51:23.931Z,56.0318
2023-04-28T06:52:38.588Z,59.9945
2023-04-28T06:53:33.637Z,64.4381
2023-04-28T06:54:37.927Z,68.0683
2023-04-28T06:55:42.618Z,66.6641
2023-04-28T06:56:46.953Z,58.1506
2023-04-28T06:57:51.276Z,57.7151
2023-04-28T06:58:55.553Z,61.3602
2023-04-28T06:59:59.873Z,65.3748
2023-04-28T07:01:04.255Z,68.8929
2023-04-28T07:02:08.679Z,67.3251
2023-04-28T07:03:13.383Z,57.5383
2023-04-28T07:04:18.212Z,54.5760
2023-04-28T07:05:22.814Z,58.1393
2023-04-28T07:06:27.134Z,62.4826
2023-04-28T07:07:31.477Z,66.4823
2023-04-28T07:08:35.828Z,67.8814
2023-04-28T07:09:40.121Z,59.7853
2023-04-28T07:10:44.415Z,55.8175
2023-04-28T07:11:48.739Z,58.8347
2023-04-28T07:12:53.044Z,62.9882
2023-04-28T07:13:57.349Z,66.8364
2023-04-28T07:15:01.677Z,68.7341
2023-04-28T07:16:06.010Z,61.0233
2023-04-28T07:17:10.293Z,54.9257
2023-04-28T07:18:14.654Z,57.1725
2023-04-28T07:19:18.917Z,61.3996
2023-04-28T07:20:23.317Z,65.4833
2023-04-28T07:21:27.606Z,68.4597
2023-04-28T07:22:31.933Z,63.1035
2023-04-28T07:23:36.522Z,55.9493
2023-04-28T07:24:40.810Z,57.5019
2023-04-28T07:25:45.243Z,61.5623
2023-04-28T07:26:49.532Z,65.6142
2023-04-28T07:27:53.843Z,68.6972
2023-04-28T07:28:58.141Z,64.2807
2023-04-28T07:30:08.760Z,54.8768
2023-04-28T07:31:03.728Z,54.1364
2023-04-28T07:32:08.054Z,57.8232
2023-04-28T07:33:12.448Z,62.2840
2023-04-28T07:34:16.921Z,66.2364
2023-04-28T07:35:21.366Z,66.6372
2023-04-28T07:36:25.686Z,58.3088
2023-04-28T07:37:31.162Z,56.1871
2023-04-28T07:38:30.443Z,59.6302
2023-04-28T07:39:34.821Z,63.5091
2023-04-28T07:40:39.184Z,67.1563
2023-04-28T07:41:43.469Z,68.0710
2023-04-28T07:42:47.790Z,59.6453
2023-04-28T07:43:52.099Z,55.2508
2023-04-28T07:44:56.425Z,58.2002
2023-04-28T07:46:00.781Z,62.4222
2023-04-28T07:47:05.270Z,66.3280
2023-04-28T07:48:09.555Z,68.4151
2023-04-28T07:49:13.842Z,61.5761
2023-04-28T07:50:18.178Z,57.9285
2023-04-28T07:51:22.607Z,60.7901
2023-04-28T07:52:26.910Z,64.7320
2023-04-28T07:53:31.249Z,68.1416
2023-04-28T07:54:37.094Z,69.3064
2023-04-28T07:55:36.244Z,61.2287
2023-04-28T07:56:40.545Z,55.9338
2023-04-28T07:57:44.858Z,58.2972
2023-04-28T07:58:49.192Z,62.4432
2023-04-28T07:59:53.477Z,66.4343
2023-04-28T08:00:57.784Z,68.9449
2023-04-28T08:02:02.129Z,62.7023
2023-04-28T08:03:06.568Z,54.5497
2023-04-28T08:04:11.193Z,55.4438
2023-04-28T08:05:16.048Z,59.7284
2023-04-28T08:06:20.461Z,64.0105
2023-04-28T08:07:24.738Z,67.6070
2023-04-28T08:08:29.041Z,64.8979
2023-04-28T08:09:33.340Z,58.0228
2023-04-28T08:10:37.670Z,59.0530
2023-04-28T08:11:41.959Z,62.8129
2023-04-28T08:12:46.366Z,66.5140
2023-04-28T08:13:50.660Z,68.2409
2023-04-28T08:14:54.940Z,61.4452
2023-04-28T08:15:59.503Z,58.0097
2023-04-28T08:17:03.811Z,56.5034
2023-04-28T08:18:08.215Z,55.2175
2023-04-28T08:19:12.585Z,49.2799
2023-04-28T08:20:16.900Z,52.7458
2023-04-28T08:21:21.515Z,50.9836
2023-04-28T08:22:25.865Z,45.1244
2023-04-28T08:23:30.152Z,51.0227
2023-04-28T08:24:34.501Z,55.3059
2023-04-28T08:25:38.850Z,60.0498
2023-04-28T08:26:43.157Z,64.9667
2023-04-28T08:27:47.476Z,67.9342
2023-04-28T08:28:51.787Z,64.8814
2023-04-28T08:29:56.092Z,66.8526
2023-04-28T08:31:00.430Z,70.7055
2023-04-28T08:32:04.758Z,74.4242
2023-04-28T08:33:09.104Z,77.3501
2023-04-28T08:34:15.830Z,71.3216
2023-04-28T08:35:15.488Z,59.1071
2023-04-28T08:36:19.812Z,56.6687
2023-04-28T08:37:24.100Z,60.5190
2023-04-28T08:38:28.421Z,65.2939
2023-04-28T08:39:32.710Z,69.9150
2023-04-28T08:40:37.051Z,71.6999
2023-04-28T08:41:41.328Z,62.5383
2023-04-28T08:42:45.629Z,57.6570
2023-04-28T08:43:50.047Z,60.6958
2023-04-28T08:44:54.346Z,65.3489
2023-04-28T08:45:58.631Z,69.8152
2023-04-28T08:47:02.996Z,72.7489
2023-04-28T08:48:07.269Z,65.3070
2023-04-28T08:49:11.582Z,58.7894
2023-04-28T08:50:15.876Z,61.0408
2023-04-28T08:51:20.188Z,65.4344
2023-04-28T08:52:24.483Z,69.9270
2023-04-28T08:53:28.800Z,73.2149
2023-04-28T08:54:33.328Z,66.7269
2023-04-28T08:55:38.086Z,57.3111
2023-04-28T08:56:42.401Z,57.8145
2023-04-28T08:57:46.686Z,62.1702
2023-04-28T08:58:51.009Z,66.8532
2023-04-28T08:59:55.326Z,71.1399
2023-04-28T09:00:59.621Z,69.2993
2023-04-28T09:02:04.003Z,60.0520
2023-04-28T09:03:08.391Z,59.4542
2023-04-28T09:04:14.411Z,63.3556
2023-04-28T09:05:14.178Z,67.8395
2023-04-28T09:06:18.615Z,71.8543
2023-04-28T09:07:22.902Z,71.4456
2023-04-28T09:08:27.222Z,61.5283
2023-04-28T09:09:34.767Z,59.1110
2023-04-28T09:10:34.550Z,62.6928
2023-04-28T09:11:38.849Z,66.9772
2023-04-28T09:12:43.167Z,71.1147
2023-04-28T09:13:47.477Z,72.2463
2023-04-28T09:14:51.785Z,62.7182
2023-04-28T09:15:56.086Z,58.1089
2023-04-28T09:17:00.432Z,61.2073
2023-04-28T09:18:04.823Z,65.6184
2023-04-28T09:19:09.150Z,69.9983
2023-04-28T09:20:13.465Z,72.4978
2023-04-28T09:21:17.764Z,64.9199
2023-04-28T09:22:26.278Z,60.7628
2023-04-28T09:23:26.972Z,63.8539
2023-04-28T09:24:31.260Z,67.9354
2023-04-28T09:25:35.575Z,71.8398
2023-04-28T09:26:39.877Z,73.6228
2023-04-28T09:27:44.203Z,64.4778
2023-04-28T09:28:48.697Z,57.6060
2023-04-28T09:29:52.991Z,59.9201
2023-04-28T09:30:57.363Z,64.2778
2023-04-28T09:32:01.680Z,68.8046
2023-04-28T09:33:06.004Z,72.2412
2023-04-28T09:34:13.791Z,66.7486
2023-04-28T09:35:12.908Z,59.5231
2023-04-28T09:36:17.189Z,61.2676
2023-04-28T09:37:21.503Z,65.4092
2023-04-28T09:38:25.792Z,69.6303
2023-04-28T09:39:30.115Z,73.0918
2023-04-28T09:40:34.402Z,68.0729
2023-04-28T09:41:38.749Z,59.5963
2023-04-28T09:42:43.088Z,60.6180
2023-04-28T09:43:47.358Z,64.7447
2023-04-28T09:44:51.695Z,69.0732
2023-04-28T09:45:56.072Z,72.7346
2023-04-28T09:47:00.348Z,69.1329
2023-04-28T09:48:04.741Z,60.9062
2023-04-28T09:49:09.047Z,61.7915
2023-04-28T09:50:13.392Z,65.7978
2023-04-28T09:51:17.659Z,69.8640
2023-04-28T09:52:21.978Z,73.3898
2023-04-28T09:53:26.281Z,69.4085
2023-04-28T09:54:30.618Z,58.9367
2023-04-28T09:55:34.901Z,57.8838
2023-04-28T09:56:40.033Z,61.8299
2023-04-28T09:57:44.308Z,66.5417
2023-04-28T09:58:48.620Z,70.6346
2023-04-28T09:59:52.911Z,70.5971
2023-04-28T10:00:57.252Z,61.4962
2023-04-28T10:02:12.787Z,60.1584
2023-04-28T10:03:06.520Z,64.0570
2023-04-28T10:04:10.990Z,68.1943
2023-04-28T10:05:15.582Z,71.9549
2023-04-28T10:06:20.318Z,71.3779
2023-04-28T10:07:24.629Z,61.4772
2023-04-28T10:08:29.206Z,59.0378
2023-04-28T10:09:33.487Z,62.6408
2023-04-28T10:10:37.783Z,67.0395
2023-04-28T10:11:42.454Z,71.0185
2023-04-28T10:12:46.754Z,71.7532
2023-04-28T10:13:51.032Z,62.4935
2023-04-28T10:14:55.349Z,59.1878
2023-04-28T10:15:59.690Z,62.5160
2023-04-28T10:17:03.993Z,66.9448
2023-04-28T10:18:08.340Z,70.8936
2023-04-28T10:19:12.633Z,72.3498
2023-04-28T10:20:16.920Z,63.2366
2023-04-28T10:21:21.240Z,58.5911
2023-04-28T10:22:25.554Z,61.5299
2023-04-28T10:23:29.846Z,65.8658
2023-04-28T10:24:34.134Z,69.9329
2023-04-28T10:25:38.422Z,66.9543
2023-04-28T10:26:42.747Z,60.9643
2023-04-28T10:27:47.034Z,59.3332
2023-04-28T10:28:51.364Z,58.2272
2023-04-28T10:29:55.649Z,57.5659
2023-04-28T10:31:00.017Z,56.9459
2023-04-28T10:32:04.300Z,56.6924
2023-04-28T10:33:08.685Z,56.6629
2023-04-28T10:34:12.976Z,56.4489
2023-04-28T10:35:17.285Z,56.2260
2023-04-28T10:36:29.952Z,56.1737
2023-04-28T10:37:26.476Z,54.7108
2023-04-28T10:38:30.796Z,47.8563
2023-04-28T10:39:35.094Z,43.1352
2023-04-28T10:40:39.377Z,45.8895
2023-04-28T10:41:43.690Z,51.7220
2023-04-28T10:42:47.993Z,57.6349
2023-04-28T10:43:52.295Z,63.0522
2023-04-28T10:44:56.597Z,66.4037
2023-04-28T10:46:01.010Z,69.2542
2023-04-28T10:47:05.435Z,73.2539
2023-04-28T10:48:09.742Z,76.7701
2023-04-28T10:49:14.285Z,79.7104
2023-04-28T10:50:20.126Z,78.4827
2023-04-28T10:51:20.930Z,65.9754
2023-04-28T10:52:25.252Z,55.3392
2023-04-28T10:53:29.648Z,52.4256
2023-04-28T10:54:33.970Z,56.3873
2023-04-28T10:55:38.282Z,61.6082
2023-04-28T10:56:42.808Z,66.6068
2023-04-28T10:57:47.141Z,70.0242
2023-04-28T10:58:51.499Z,64.4608
2023-04-28T10:59:55.811Z,62.3484
2023-04-28T11:01:00.121Z,65.6551
2023-04-28T11:02:04.550Z,69.8050
2023-04-28T11:03:09.045Z,73.6571
2023-04-28T11:04:14.052Z,74.1535
2023-04-28T11:05:18.604Z,63.8495
2023-04-28T11:06:23.311Z,57.7134
2023-04-28T11:07:27.600Z,60.1658
2023-04-28T11:08:31.956Z,64.5597
2023-04-28T11:09:36.236Z,69.1463
2023-04-28T11:10:40.548Z,72.5012
2023-04-28T11:11:44.849Z,66.6543
2023-04-28T11:12:49.155Z,59.4645
2023-04-28T11:13:53.475Z,60.9445
2023-04-28T11:14:57.747Z,65.1566
2023-04-28T11:16:02.161Z,69.2234
2023-04-28T11:17:06.437Z,68.7678
2023-04-28T11:18:10.761Z,64.5486
2023-04-28T11:19:15.351Z,55.3788
2023-04-28T11:20:19.658Z,54.8798
2023-04-28T11:21:23.988Z,60.1971
2023-04-28T11:22:28.285Z,64.7046
2023-04-28T11:23:32.631Z,69.2163
2023-04-28T11:24:36.915Z,70.8223
2023-04-28T11:25:41.232Z,63.7034
2023-04-28T11:26:45.548Z,62.5868
2023-04-28T11:27:49.850Z,66.0534
2023-04-28T11:28:54.176Z,70.1311
2023-04-28T11:29:58.473Z,73.8642
2023-04-28T11:31:02.785Z,72.8912
2023-04-28T11:32:07.180Z,62.4494
2023-04-28T11:33:11.664Z,58.5697
2023-04-28T11:34:15.954Z,61.6411
2023-04-28T11:35:20.242Z,66.0334
2023-04-28T11:36:24.562Z,70.3740
2023-04-28T11:37:28.846Z,72.4364
2023-04-28T11:38:33.179Z,64.3981
2023-04-28T11:39:37.503Z,59.9823
2023-04-28T11:40:41.803Z,62.6560
2023-04-28T11:41:46.406Z,66.9107
2023-04-28T11:42:50.707Z,70.9791
2023-04-28T11:43:55.030Z,73.2554
2023-04-28T11:44:59.317Z,65.1917
2023-04-28T11:46:03.685Z,59.3951
2023-04-28T11:47:08.020Z,61.6400
2023-04-28T11:48:12.333Z,65.8180
2023-04-28T11:49:16.613Z,70.0956
2023-04-28T11:50:21.033Z,73.0712
2023-04-28T11:51:25.308Z,66.5095
2023-04-28T11:52:29.642Z,58.7556
2023-04-28T11:53:33.968Z,60.0914
2023-04-28T11:54:38.268Z,64.1352
2023-04-28T11:55:42.576Z,68.5416
2023-04-28T11:56:46.883Z,72.2661
2023-04-28T11:57:51.186Z,68.1451
2023-04-28T11:58:55.536Z,58.9378
2023-04-28T11:59:59.817Z,58.5683
2023-04-28T12:01:04.145Z,62.4897
2023-04-28T12:02:08.460Z,66.9643
2023-04-28T12:03:12.821Z,71.1497
2023-04-28T12:04:17.241Z,70.5017
2023-04-28T12:05:21.670Z,65.0445
2023-04-28T12:06:25.942Z,66.4911
2023-04-28T12:07:30.233Z,69.9328
2023-04-28T12:08:34.547Z,73.4781
2023-04-28T12:09:38.885Z,76.2663
2023-04-28T12:10:43.173Z,69.7009
2023-04-28T12:11:47.504Z,59.2941
2023-04-28T12:12:53.405Z,58.2634
2023-04-28T12:13:52.668Z,62.0200
2023-04-28T12:14:56.993Z,66.2704
2023-04-28T12:16:01.306Z,70.4770
2023-04-28T12:17:05.605Z,70.8951
2023-04-28T12:18:09.970Z,64.1054
2023-04-28T12:19:14.316Z,64.3092
2023-04-28T12:20:18.625Z,67.8260
2023-04-28T12:21:22.923Z,71.5693
2023-04-28T12:22:27.240Z,74.9630
2023-04-28T12:23:31.550Z,71.6035
2023-04-28T12:24:35.860Z,60.8368
2023-04-28T12:25:40.148Z,58.6931
2023-04-28T12:26:44.486Z,62.1372
2023-04-28T12:27:48.767Z,66.4828
2023-04-28T12:28:53.081Z,70.6125
2023-04-28T12:29:57.371Z,71.4401
2023-04-28T12:31:01.761Z,62.9505
2023-04-28T12:32:06.049Z,60.3719
2023-04-28T12:33:10.405Z,63.5816
2023-04-28T12:34:14.833Z,67.7658
2023-04-28T12:35:19.166Z,71.6624
2023-04-28T12:36:23.479Z,72.4617
2023-04-28T12:37:27.775Z,63.2656
2023-04-28T12:38:32.102Z,59.7125
2023-04-28T12:39:39.369Z,62.6249
2023-04-28T12:40:38.663Z,66.8152
2023-04-28T12:41:42.973Z,70.7115
2023-04-28T12:42:47.288Z,72.5965
2023-04-28T12:43:51.589Z,64.2353
2023-04-28T12:44:56.034Z,58.2942
2023-04-28T12:46:00.375Z,60.5145
2023-04-28T12:47:04.671Z,64.7095
2023-04-28T12:48:09.008Z,68.9556
2023-04-28T12:49:13.275Z,72.0978
2023-04-28T12:50:17.594Z,66.1407
2023-04-28T12:51:22.026Z,59.1909
2023-04-28T12:52:26.309Z,60.7887
2023-04-28T12:53:30.779Z,64.7335
2023-04-28T12:54:35.078Z,68.9678
2023-04-28T12:55:39.403Z,72.3525
2023-04-28T12:56:43.695Z,67.4316
2023-04-28T12:57:48.015Z,58.8793